Accueil
METAR-TAF:

METAR-TAF

Aéroports :

Augusta, Maine, États-Unis

latitude: 44-19-14N, longitude: 069-47-50W, altitude: 107 m

Observation

Le bulletin a été fait il y a 32 minutes, à 01:53 UTC
Vent 7 kt de nord
Température -11°C
Humidité 66%
Pression 1022 hPa
Visibilité: 16.1 km
Ciel clair

METAR: KAUG 110153Z AUTO 36007KT 10SM CLR M11/M16 A3017 RMK AO2 SLP223 T11061156

Heure: 21:25 (02:25 UTC)

Prévision

Le bulletin a été fait il y a 3 heures et 5 minutes, à 23:20 UTC
Prévision valable du 11 à 00 UTC au 11 à 24 UTC
Vent 4 kt de nord/nord-ouest
Visibilité: 10 km
Ciel clair
A partir de 11 à 1200 UTC
Vent kt de nord
Visibilité: 10 km
Nuages fragmentés à une hauteur de 25000 ft

TAF: KAUG 102320Z 1100/1124 34004KT P6SM SKC FM111200 00000KT P6SM BKN250

Observations et prévisions météorologiques de plus de 4000 aéroports (messages METAR et TAF).

Les stations disponibles sont représentées par des disques jaunes et rouges sur la carte.

Passer la souris dessus pour voir le nom de la station.

Cliquer dessus pour voir les observations et prévisions météorologiques.

Pour changer de carte: cliquez sur les boutons verts avec une croix noire pour zoomer, sur le bouton vert avec un tiret pour effectuer un zoom arrière, ou sur les flèches vertes pour les cartes adjacentes.


METAR-TAF: